createdAt,value
2019-03-25T00:03:09.408Z,7.05
2019-03-25T00:08:14.174Z,7.70
2019-03-25T00:13:18.851Z,7.96
2019-03-25T00:18:23.511Z,7.93
2019-03-25T00:23:28.262Z,7.82
2019-03-25T00:28:34.059Z,7.60
2019-03-25T00:33:39.782Z,6.17
2019-03-25T00:38:44.425Z,6.81
2019-03-25T00:43:49.166Z,6.91
2019-03-25T00:48:53.908Z,6.46
2019-03-25T00:53:58.770Z,6.31
2019-03-25T00:59:04.619Z,6.07
2019-03-25T01:04:09.469Z,6.46
2019-03-25T01:09:14.311Z,6.44
2019-03-25T01:14:19.359Z,6.79
2019-03-25T01:19:24.410Z,6.26
2019-03-25T01:24:29.039Z,6.72
2019-03-25T01:29:33.778Z,6.24
2019-03-25T01:34:38.432Z,6.49
2019-03-25T01:39:43.276Z,5.95
2019-03-25T01:44:48.135Z,6.25
2019-03-25T01:49:52.865Z,6.04
2019-03-25T01:54:58.037Z,5.16
2019-03-25T02:00:02.661Z,5.19
2019-03-25T02:05:09.027Z,5.61
2019-03-25T02:10:15.315Z,5.53
2019-03-25T02:15:20.161Z,4.72
2019-03-25T02:20:26.796Z,4.97
2019-03-25T02:25:34.053Z,5.34
2019-03-25T02:30:38.804Z,5.76
2019-03-25T02:35:43.543Z,5.50
2019-03-25T02:40:48.225Z,5.36
2019-03-25T02:45:52.919Z,4.62
2019-03-25T02:50:57.777Z,4.29
2019-03-25T02:56:02.620Z,4.53
2019-03-25T03:01:07.469Z,4.90
2019-03-25T03:06:12.104Z,5.26
2019-03-25T03:11:17.049Z,5.23
2019-03-25T03:16:21.654Z,5.19
2019-03-25T03:21:26.392Z,5.02
2019-03-25T03:26:32.499Z,4.88
2019-03-25T03:31:37.368Z,5.01
2019-03-25T03:36:42.189Z,5.43
2019-03-25T03:41:48.671Z,5.31
2019-03-25T03:46:53.312Z,5.79
2019-03-25T03:51:58.210Z,5.49
2019-03-25T03:57:02.905Z,4.81
2019-03-25T04:02:07.548Z,5.06
2019-03-25T04:07:12.185Z,5.24
2019-03-25T04:12:16.920Z,5.05
2019-03-25T04:17:21.667Z,5.08
2019-03-25T04:22:28.060Z,5.30
2019-03-25T04:27:33.000Z,5.00
2019-03-25T04:32:37.805Z,5.25
2019-03-25T04:37:42.533Z,5.25
2019-03-25T04:42:47.340Z,5.12
2019-03-25T04:47:53.602Z,5.54
2019-03-25T04:52:58.185Z,4.88
2019-03-25T04:58:02.895Z,5.86
2019-03-25T05:03:07.721Z,6.51
2019-03-25T05:08:12.380Z,8.33
2019-03-25T05:13:18.464Z,9.96
2019-03-25T05:18:23.524Z,11.08
2019-03-25T05:23:29.771Z,11.54
2019-03-25T05:28:34.554Z,11.74
2019-03-25T05:33:39.302Z,11.77
2019-03-25T05:38:45.122Z,10.80
2019-03-25T05:43:51.629Z,9.49
2019-03-25T05:48:56.454Z,9.89
2019-03-25T05:54:01.305Z,9.87
2019-03-25T05:59:06.045Z,10.51
2019-03-25T06:04:11.525Z,10.03
2019-03-25T06:09:17.990Z,10.98
2019-03-25T06:14:22.691Z,11.80
2019-03-25T06:19:27.366Z,11.35
2019-03-25T06:24:32.217Z,11.96
2019-03-25T06:29:36.963Z,12.77
2019-03-25T06:34:41.707Z,12.34
2019-03-25T06:39:46.442Z,13.15
2019-03-25T06:44:51.190Z,13.45
2019-03-25T06:49:55.934Z,13.91
2019-03-25T06:55:00.729Z,14.13
2019-03-25T07:00:07.531Z,14.14
2019-03-25T07:05:14.164Z,14.78
2019-03-25T07:10:34.328Z,14.54
2019-03-25T07:15:39.107Z,15.37
2019-03-25T07:20:44.010Z,15.63
2019-03-25T07:25:48.794Z,15.78
2019-03-25T07:30:53.629Z,16.27
2019-03-25T07:35:58.300Z,16.46
2019-03-25T07:46:15.939Z,16.78
2019-03-25T07:51:22.343Z,16.57
2019-03-25T07:56:27.104Z,17.45
2019-03-25T08:01:33.748Z,17.43
2019-03-25T08:06:38.332Z,17.85
2019-03-25T08:11:43.163Z,18.29
2019-03-25T08:16:47.902Z,18.64
2019-03-25T08:21:53.448Z,19.10
2019-03-25T08:26:58.621Z,19.26
2019-03-25T08:32:03.509Z,19.77
2019-03-25T08:37:08.419Z,20.25
2019-03-25T08:42:13.763Z,20.28
2019-03-25T08:47:18.927Z,21.00
2019-03-25T08:52:23.782Z,21.43
2019-03-25T08:57:28.518Z,21.22
2019-03-25T09:02:33.475Z,22.27
2019-03-25T09:07:39.449Z,21.95
2019-03-25T09:12:44.222Z,22.73
2019-03-25T09:17:49.026Z,22.89
2019-03-25T09:22:55.441Z,23.23
2019-03-25T09:28:00.132Z,23.12
2019-03-25T09:33:05.409Z,23.65
2019-03-25T09:38:10.157Z,23.78
2019-03-25T09:43:14.793Z,24.11
2019-03-25T09:48:19.445Z,24.08
2019-03-25T09:53:25.199Z,24.43
2019-03-25T09:58:36.131Z,24.70
2019-03-25T10:03:36.429Z,24.62
2019-03-25T10:08:41.277Z,24.57
2019-03-25T10:13:46.020Z,25.42
2019-03-25T10:18:51.785Z,24.91
2019-03-25T10:23:56.708Z,25.06
2019-03-25T10:29:01.584Z,24.98
2019-03-25T10:34:06.328Z,25.69
2019-03-25T10:39:11.068Z,25.50
2019-03-25T10:44:15.816Z,23.92
2019-03-25T10:49:20.565Z,25.53
2019-03-25T10:54:25.336Z,26.02
2019-03-25T10:59:30.975Z,25.89
2019-03-25T11:04:35.711Z,24.75
2019-03-25T11:09:40.562Z,25.41
2019-03-25T11:14:45.272Z,25.89
2019-03-25T11:19:50.044Z,26.15
2019-03-25T11:24:54.791Z,26.07
2019-03-25T11:29:59.718Z,25.91
2019-03-25T11:35:10.225Z,25.82
2019-03-25T11:40:16.113Z,26.10
2019-03-25T11:45:21.145Z,26.22
2019-03-25T11:50:26.819Z,26.11
2019-03-25T11:55:31.443Z,24.35
2019-03-25T12:00:37.976Z,24.67
2019-03-25T12:05:42.685Z,25.74
2019-03-25T12:10:48.349Z,25.73
2019-03-25T12:15:53.391Z,24.43
2019-03-25T12:20:58.016Z,24.59
2019-03-25T12:26:02.987Z,25.14
2019-03-25T12:31:07.730Z,25.68
2019-03-25T12:36:12.572Z,25.99
2019-03-25T12:41:17.522Z,26.33
2019-03-25T12:46:22.264Z,26.33
2019-03-25T12:51:27.132Z,26.68
2019-03-25T12:56:32.266Z,26.74
2019-03-25T13:01:36.918Z,27.34
2019-03-25T13:06:42.522Z,26.94
2019-03-25T13:11:47.321Z,27.01
2019-03-25T13:16:52.163Z,26.98
2019-03-25T13:21:56.915Z,27.70
2019-03-25T13:27:01.753Z,26.97
2019-03-25T13:32:06.500Z,27.04
2019-03-25T13:37:11.449Z,27.69
2019-03-25T13:42:17.147Z,26.94
2019-03-25T13:47:21.960Z,26.87
2019-03-25T13:52:26.710Z,25.75
2019-03-25T13:57:34.625Z,26.84
2019-03-25T14:02:39.472Z,26.72
2019-03-25T14:07:44.109Z,27.04
2019-03-25T14:12:48.855Z,26.98
2019-03-25T14:17:54.538Z,26.89
2019-03-25T14:22:59.783Z,26.20
2019-03-25T14:28:04.656Z,26.01
2019-03-25T14:33:09.471Z,26.12
2019-03-25T14:38:14.316Z,26.45
2019-03-25T14:43:19.070Z,25.44
2019-03-25T14:48:23.699Z,24.58
2019-03-25T14:53:28.448Z,24.62
2019-03-25T14:58:33.292Z,23.43
2019-03-25T15:03:42.156Z,22.86
2019-03-25T15:08:47.195Z,22.43
2019-03-25T15:13:53.464Z,22.15
2019-03-25T15:18:59.861Z,22.54
2019-03-25T15:24:04.698Z,22.12
2019-03-25T15:29:09.437Z,22.33
2019-03-25T15:34:14.180Z,22.08
2019-03-25T15:39:20.641Z,22.34
2019-03-25T15:44:25.305Z,21.61
2019-03-25T15:49:30.154Z,21.23
2019-03-25T15:54:34.902Z,21.50
2019-03-25T15:59:39.571Z,21.37
2019-03-25T16:04:44.287Z,21.43
2019-03-25T16:09:49.030Z,21.97
2019-03-25T16:14:53.769Z,21.73
2019-03-25T16:20:01.039Z,22.11
2019-03-25T16:25:07.927Z,22.27
2019-03-25T16:30:12.622Z,22.22
2019-03-25T16:35:17.559Z,21.77
2019-03-25T16:40:22.608Z,22.07
2019-03-25T16:45:28.403Z,21.85
2019-03-25T16:50:34.869Z,21.25
2019-03-25T16:55:40.225Z,21.04
2019-03-25T17:00:45.581Z,20.57
2019-03-25T17:05:51.453Z,20.06
2019-03-25T17:10:56.748Z,19.36
2019-03-25T17:16:01.857Z,19.18
2019-03-25T17:21:06.936Z,18.72
2019-03-25T17:26:11.619Z,19.24
2019-03-25T17:31:20.833Z,19.19
2019-03-25T17:36:23.245Z,18.18
2019-03-25T17:41:28.039Z,17.66
2019-03-25T17:46:32.881Z,18.12
2019-03-25T17:51:39.053Z,18.16
2019-03-25T17:56:44.571Z,18.17
2019-03-25T18:01:49.362Z,17.94
2019-03-25T18:06:54.102Z,17.83
2019-03-25T18:11:59.843Z,17.90
2019-03-25T18:17:04.677Z,17.54
2019-03-25T18:22:09.570Z,17.17
2019-03-25T18:27:14.514Z,16.62
2019-03-25T18:32:19.258Z,15.95
2019-03-25T18:37:24.102Z,15.46
2019-03-25T18:42:30.416Z,14.92
2019-03-25T18:47:35.241Z,15.43
2019-03-25T18:52:40.392Z,15.70
2019-03-25T18:57:45.286Z,15.99
2019-03-25T19:02:50.010Z,16.19
2019-03-25T19:07:56.652Z,15.89
2019-03-25T19:13:01.413Z,16.56
2019-03-25T19:18:06.382Z,16.56
2019-03-25T19:23:12.143Z,15.97
2019-03-25T19:28:17.086Z,14.87
2019-03-25T19:33:21.809Z,15.05
2019-03-25T19:38:26.654Z,15.64
2019-03-25T19:43:31.419Z,15.87
2019-03-25T19:48:36.592Z,14.76
2019-03-25T19:53:41.874Z,15.25
2019-03-25T19:58:46.770Z,14.78
2019-03-25T20:03:52.656Z,14.61
2019-03-25T20:08:57.422Z,14.36
2019-03-25T20:14:03.285Z,14.38
2019-03-25T20:19:08.312Z,14.08
2019-03-25T20:24:13.146Z,13.09
2019-03-25T20:29:18.084Z,13.35
2019-03-25T20:34:23.032Z,13.78
2019-03-25T20:39:29.510Z,13.52
2019-03-25T20:44:35.314Z,13.79
2019-03-25T20:49:40.315Z,12.67
2019-03-25T20:54:45.284Z,13.55
2019-03-25T20:59:51.083Z,13.71
2019-03-25T21:04:55.791Z,14.06
2019-03-25T21:10:00.820Z,14.12
2019-03-25T21:15:08.442Z,13.72
2019-03-25T21:20:14.115Z,13.55
2019-03-25T21:25:21.039Z,13.32
2019-03-25T21:30:28.319Z,13.31
2019-03-25T21:35:33.569Z,13.19
2019-03-25T21:40:38.315Z,13.52
2019-03-25T21:45:42.998Z,13.29
2019-03-25T21:50:48.431Z,13.24
2019-03-25T21:55:53.359Z,12.99
2019-03-25T22:00:58.105Z,12.24
2019-03-25T22:06:02.946Z,11.98
2019-03-25T22:11:07.792Z,12.24
2019-03-25T22:16:12.641Z,11.91
2019-03-25T22:21:17.327Z,11.67
2019-03-25T22:26:23.046Z,11.22
2019-03-25T22:31:27.792Z,11.70
2019-03-25T22:36:32.531Z,11.40
2019-03-25T22:41:37.301Z,11.17
2019-03-25T22:46:42.020Z,11.26
2019-03-25T22:51:46.674Z,11.09
2019-03-25T22:56:51.403Z,10.54
2019-03-25T23:01:56.247Z,10.86
2019-03-25T23:07:00.988Z,10.32
2019-03-25T23:12:05.546Z,9.96
2019-03-25T23:17:10.268Z,10.01
2019-03-25T23:22:15.112Z,9.89
2019-03-25T23:27:19.962Z,10.62
2019-03-25T23:32:26.343Z,10.57
2019-03-25T23:37:30.984Z,11.18
2019-03-25T23:42:35.624Z,11.16
2019-03-25T23:47:40.368Z,11.40
2019-03-25T23:52:45.211Z,10.87
2019-03-25T23:57:49.796Z,10.74
